sensor_id;sensor_type;location;lat;lon;timestamp;P1;durP1;ratioP1;P2;durP2;ratioP2
56427;SDS011;42331;53.578;9.760;2023-05-07T00:01:08;13.82;;;9.38;;
56427;SDS011;42331;53.578;9.760;2023-05-07T00:03:38;13.73;;;9.40;;
56427;SDS011;42331;53.578;9.760;2023-05-07T00:06:09;17.40;;;10.07;;
56427;SDS011;42331;53.578;9.760;2023-05-07T00:08:42;13.15;;;9.40;;
56427;SDS011;42331;53.578;9.760;2023-05-07T00:11:13;13.88;;;9.43;;
56427;SDS011;42331;53.578;9.760;2023-05-07T00:13:44;14.33;;;9.60;;
56427;SDS011;42331;53.578;9.760;2023-05-07T00:16:16;14.30;;;9.60;;
56427;SDS011;42331;53.578;9.760;2023-05-07T00:18:46;14.23;;;9.90;;
56427;SDS011;42331;53.578;9.760;2023-05-07T00:21:17;14.00;;;10.47;;
56427;SDS011;42331;53.578;9.760;2023-05-07T00:23:48;14.65;;;10.15;;
56427;SDS011;42331;53.578;9.760;2023-05-07T00:26:19;14.23;;;10.07;;
56427;SDS011;42331;53.578;9.760;2023-05-07T00:28:51;16.23;;;10.20;;
56427;SDS011;42331;53.578;9.760;2023-05-07T00:31:21;14.70;;;9.88;;
56427;SDS011;42331;53.578;9.760;2023-05-07T00:33:52;13.00;;;9.18;;
56427;SDS011;42331;53.578;9.760;2023-05-07T00:36:23;8.95;;;6.47;;
56427;SDS011;42331;53.578;9.760;2023-05-07T00:38:54;13.43;;;9.82;;
56427;SDS011;42331;53.578;9.760;2023-05-07T00:41:26;15.60;;;9.60;;
56427;SDS011;42331;53.578;9.760;2023-05-07T00:43:57;13.48;;;9.35;;
56427;SDS011;42331;53.578;9.760;2023-05-07T00:46:28;13.25;;;9.63;;
56427;SDS011;42331;53.578;9.760;2023-05-07T00:49:01;13.60;;;9.02;;
56427;SDS011;42331;53.578;9.760;2023-05-07T00:51:32;13.88;;;9.02;;
56427;SDS011;42331;53.578;9.760;2023-05-07T00:54:03;12.68;;;9.07;;
56427;SDS011;42331;53.578;9.760;2023-05-07T00:56:34;9.97;;;6.57;;
56427;SDS011;42331;53.578;9.760;2023-05-07T00:59:06;11.30;;;8.38;;
56427;SDS011;42331;53.578;9.760;2023-05-07T01:01:37;14.85;;;9.38;;
56427;SDS011;42331;53.578;9.760;2023-05-07T01:04:08;12.03;;;8.40;;
56427;SDS011;42331;53.578;9.760;2023-05-07T01:06:38;14.90;;;9.23;;
56427;SDS011;42331;53.578;9.760;2023-05-07T01:09:10;12.27;;;8.55;;
56427;SDS011;42331;53.578;9.760;2023-05-07T01:11:42;10.93;;;7.82;;
56427;SDS011;42331;53.578;9.760;2023-05-07T01:14:14;10.93;;;7.90;;
56427;SDS011;42331;53.578;9.760;2023-05-07T01:16:45;10.05;;;7.60;;
56427;SDS011;42331;53.578;9.760;2023-05-07T01:19:17;12.60;;;7.70;;
56427;SDS011;42331;53.578;9.760;2023-05-07T01:21:48;11.52;;;8.18;;
56427;SDS011;42331;53.578;9.760;2023-05-07T01:24:21;11.60;;;7.13;;
56427;SDS011;42331;53.578;9.760;2023-05-07T01:26:52;9.60;;;6.63;;
56427;SDS011;42331;53.578;9.760;2023-05-07T01:29:23;9.52;;;7.00;;
56427;SDS011;42331;53.578;9.760;2023-05-07T01:31:54;11.18;;;6.75;;
56427;SDS011;42331;53.578;9.760;2023-05-07T01:34:27;10.52;;;7.07;;
56427;SDS011;42331;53.578;9.760;2023-05-07T01:37:00;11.13;;;7.38;;
56427;SDS011;42331;53.578;9.760;2023-05-07T01:39:31;8.88;;;6.78;;
56427;SDS011;42331;53.578;9.760;2023-05-07T01:42:03;10.10;;;7.15;;
56427;SDS011;42331;53.578;9.760;2023-05-07T01:44:33;10.48;;;6.68;;
56427;SDS011;42331;53.578;9.760;2023-05-07T01:47:04;9.55;;;7.05;;
56427;SDS011;42331;53.578;9.760;2023-05-07T01:49:36;9.85;;;6.82;;
56427;SDS011;42331;53.578;9.760;2023-05-07T01:52:07;10.20;;;6.55;;
56427;SDS011;42331;53.578;9.760;2023-05-07T01:54:40;10.15;;;6.35;;
56427;SDS011;42331;53.578;9.760;2023-05-07T01:57:11;10.93;;;6.53;;
56427;SDS011;42331;53.578;9.760;2023-05-07T01:59:41;9.05;;;6.32;;
56427;SDS011;42331;53.578;9.760;2023-05-07T02:02:12;9.52;;;6.63;;
56427;SDS011;42331;53.578;9.760;2023-05-07T02:04:43;9.45;;;6.82;;
56427;SDS011;42331;53.578;9.760;2023-05-07T02:07:13;8.07;;;6.13;;
56427;SDS011;42331;53.578;9.760;2023-05-07T02:09:44;9.30;;;6.65;;
56427;SDS011;42331;53.578;9.760;2023-05-07T02:12:15;7.60;;;5.80;;
56427;SDS011;42331;53.578;9.760;2023-05-07T02:14:46;6.82;;;4.90;;
56427;SDS011;42331;53.578;9.760;2023-05-07T02:17:16;8.90;;;6.75;;
56427;SDS011;42331;53.578;9.760;2023-05-07T02:19:47;8.27;;;6.07;;
56427;SDS011;42331;53.578;9.760;2023-05-07T02:22:18;8.30;;;6.32;;
56427;SDS011;42331;53.578;9.760;2023-05-07T02:24:49;7.97;;;5.35;;
56427;SDS011;42331;53.578;9.760;2023-05-07T02:27:19;8.15;;;5.72;;
56427;SDS011;42331;53.578;9.760;2023-05-07T02:29:50;7.82;;;6.07;;
56427;SDS011;42331;53.578;9.760;2023-05-07T02:32:21;8.80;;;6.55;;
56427;SDS011;42331;53.578;9.760;2023-05-07T02:34:53;9.30;;;6.05;;
56427;SDS011;42331;53.578;9.760;2023-05-07T02:37:23;10.07;;;6.85;;
56427;SDS011;42331;53.578;9.760;2023-05-07T02:39:54;8.65;;;6.50;;
56427;SDS011;42331;53.578;9.760;2023-05-07T02:42:25;9.20;;;6.43;;
56427;SDS011;42331;53.578;9.760;2023-05-07T02:44:55;10.10;;;6.60;;
56427;SDS011;42331;53.578;9.760;2023-05-07T02:47:26;10.27;;;6.68;;
56427;SDS011;42331;53.578;9.760;2023-05-07T02:49:58;10.23;;;6.40;;
56427;SDS011;42331;53.578;9.760;2023-05-07T02:52:28;9.48;;;6.60;;
56427;SDS011;42331;53.578;9.760;2023-05-07T02:54:59;9.48;;;6.85;;
56427;SDS011;42331;53.578;9.760;2023-05-07T02:57:30;9.93;;;6.90;;
56427;SDS011;42331;53.578;9.760;2023-05-07T03:00:09;10.25;;;6.50;;
56427;SDS011;42331;53.578;9.760;2023-05-07T03:02:49;8.40;;;6.63;;
56427;SDS011;42331;53.578;9.760;2023-05-07T03:05:20;11.27;;;7.32;;
56427;SDS011;42331;53.578;9.760;2023-05-07T03:07:50;12.48;;;6.88;;
56427;SDS011;42331;53.578;9.760;2023-05-07T03:10:21;10.95;;;7.65;;
56427;SDS011;42331;53.578;9.760;2023-05-07T03:12:52;9.95;;;7.25;;
56427;SDS011;42331;53.578;9.760;2023-05-07T03:15:22;11.00;;;7.50;;
56427;SDS011;42331;53.578;9.760;2023-05-07T03:17:53;10.77;;;7.20;;
56427;SDS011;42331;53.578;9.760;2023-05-07T03:20:24;7.03;;;5.18;;
56427;SDS011;42331;53.578;9.760;2023-05-07T03:22:55;10.50;;;7.53;;
56427;SDS011;42331;53.578;9.760;2023-05-07T03:25:25;8.95;;;6.85;;
56427;SDS011;42331;53.578;9.760;2023-05-07T03:27:56;10.85;;;7.40;;
56427;SDS011;42331;53.578;9.760;2023-05-07T03:30:27;9.95;;;7.53;;
56427;SDS011;42331;53.578;9.760;2023-05-07T03:32:58;11.77;;;7.50;;
56427;SDS011;42331;53.578;9.760;2023-05-07T03:35:28;9.98;;;7.53;;
56427;SDS011;42331;53.578;9.760;2023-05-07T03:37:59;13.77;;;8.75;;
56427;SDS011;42331;53.578;9.760;2023-05-07T03:40:30;10.63;;;7.75;;
56427;SDS011;42331;53.578;9.760;2023-05-07T03:43:00;10.75;;;7.50;;
56427;SDS011;42331;53.578;9.760;2023-05-07T03:45:31;12.45;;;8.50;;
56427;SDS011;42331;53.578;9.760;2023-05-07T03:48:02;10.70;;;7.35;;
56427;SDS011;42331;53.578;9.760;2023-05-07T03:50:33;11.10;;;7.68;;
56427;SDS011;42331;53.578;9.760;2023-05-07T03:53:04;11.32;;;7.70;;
56427;SDS011;42331;53.578;9.760;2023-05-07T03:55:34;12.30;;;8.38;;
56427;SDS011;42331;53.578;9.760;2023-05-07T03:58:05;11.77;;;7.88;;
56427;SDS011;42331;53.578;9.760;2023-05-07T04:00:36;11.20;;;8.55;;
56427;SDS011;42331;53.578;9.760;2023-05-07T04:03:10;12.93;;;8.15;;
56427;SDS011;42331;53.578;9.760;2023-05-07T04:05:41;12.23;;;8.35;;
56427;SDS011;42331;53.578;9.760;2023-05-07T04:08:11;10.68;;;7.72;;
56427;SDS011;42331;53.578;9.760;2023-05-07T04:10:42;11.02;;;7.75;;
56427;SDS011;42331;53.578;9.760;2023-05-07T04:13:13;10.45;;;8.05;;
56427;SDS011;42331;53.578;9.760;2023-05-07T04:15:43;11.75;;;8.25;;
56427;SDS011;42331;53.578;9.760;2023-05-07T04:18:16;11.10;;;7.70;;
56427;SDS011;42331;53.578;9.760;2023-05-07T04:20:47;12.10;;;7.63;;
56427;SDS011;42331;53.578;9.760;2023-05-07T04:23:20;11.68;;;7.65;;
56427;SDS011;42331;53.578;9.760;2023-05-07T04:25:50;11.85;;;8.23;;
56427;SDS011;42331;53.578;9.760;2023-05-07T04:28:21;11.23;;;7.75;;
56427;SDS011;42331;53.578;9.760;2023-05-07T04:30:52;11.68;;;7.63;;
56427;SDS011;42331;53.578;9.760;2023-05-07T04:33:22;10.10;;;7.60;;
56427;SDS011;42331;53.578;9.760;2023-05-07T04:35:53;11.13;;;7.50;;
56427;SDS011;42331;53.578;9.760;2023-05-07T04:38:24;14.45;;;8.77;;
56427;SDS011;42331;53.578;9.760;2023-05-07T04:40:55;16.77;;;8.30;;
56427;SDS011;42331;53.578;9.760;2023-05-07T04:43:27;11.40;;;8.38;;
56427;SDS011;42331;53.578;9.760;2023-05-07T04:45:57;11.77;;;7.85;;
56427;SDS011;42331;53.578;9.760;2023-05-07T04:48:28;11.23;;;7.80;;
56427;SDS011;42331;53.578;9.760;2023-05-07T04:50:59;11.13;;;7.57;;
56427;SDS011;42331;53.578;9.760;2023-05-07T04:53:30;10.55;;;7.35;;
56427;SDS011;42331;53.578;9.760;2023-05-07T04:56:00;12.77;;;7.93;;
56427;SDS011;42331;53.578;9.760;2023-05-07T04:58:31;15.27;;;7.55;;
56427;SDS011;42331;53.578;9.760;2023-05-07T05:01:02;13.13;;;7.90;;
56427;SDS011;42331;53.578;9.760;2023-05-07T05:03:32;12.10;;;7.90;;
56427;SDS011;42331;53.578;9.760;2023-05-07T05:06:03;12.32;;;7.68;;
56427;SDS011;42331;53.578;9.760;2023-05-07T05:08:34;10.77;;;7.60;;
56427;SDS011;42331;53.578;9.760;2023-05-07T05:11:05;11.13;;;7.55;;
56427;SDS011;42331;53.578;9.760;2023-05-07T05:13:36;11.05;;;7.95;;
56427;SDS011;42331;53.578;9.760;2023-05-07T05:16:06;10.80;;;7.20;;
56427;SDS011;42331;53.578;9.760;2023-05-07T05:18:37;10.75;;;7.50;;
56427;SDS011;42331;53.578;9.760;2023-05-07T05:21:08;11.23;;;7.75;;
56427;SDS011;42331;53.578;9.760;2023-05-07T05:23:38;7.95;;;5.40;;
56427;SDS011;42331;53.578;9.760;2023-05-07T05:26:09;10.50;;;7.45;;
56427;SDS011;42331;53.578;9.760;2023-05-07T05:28:40;13.02;;;8.60;;
56427;SDS011;42331;53.578;9.760;2023-05-07T05:31:10;15.43;;;7.57;;
56427;SDS011;42331;53.578;9.760;2023-05-07T05:33:41;12.95;;;7.75;;
56427;SDS011;42331;53.578;9.760;2023-05-07T05:36:12;10.82;;;7.22;;
56427;SDS011;42331;53.578;9.760;2023-05-07T05:38:43;10.40;;;7.32;;
56427;SDS011;42331;53.578;9.760;2023-05-07T05:41:14;11.80;;;7.70;;
56427;SDS011;42331;53.578;9.760;2023-05-07T05:43:45;10.45;;;7.18;;
56427;SDS011;42331;53.578;9.760;2023-05-07T05:46:15;10.43;;;7.75;;
56427;SDS011;42331;53.578;9.760;2023-05-07T05:48:46;9.80;;;6.75;;
56427;SDS011;42331;53.578;9.760;2023-05-07T05:51:17;12.07;;;7.60;;
56427;SDS011;42331;53.578;9.760;2023-05-07T05:53:47;9.82;;;7.18;;
56427;SDS011;42331;53.578;9.760;2023-05-07T05:56:19;10.15;;;6.88;;
56427;SDS011;42331;53.578;9.760;2023-05-07T05:58:49;10.73;;;7.27;;
56427;SDS011;42331;53.578;9.760;2023-05-07T06:01:20;10.57;;;6.95;;
56427;SDS011;42331;53.578;9.760;2023-05-07T06:03:51;9.20;;;7.30;;
56427;SDS011;42331;53.578;9.760;2023-05-07T06:06:22;10.73;;;6.95;;
56427;SDS011;42331;53.578;9.760;2023-05-07T06:08:53;10.80;;;6.97;;
56427;SDS011;42331;53.578;9.760;2023-05-07T06:11:23;11.00;;;7.10;;
56427;SDS011;42331;53.578;9.760;2023-05-07T06:13:55;9.45;;;6.90;;
56427;SDS011;42331;53.578;9.760;2023-05-07T06:16:26;7.53;;;5.15;;
56427;SDS011;42331;53.578;9.760;2023-05-07T06:18:56;10.10;;;6.25;;
56427;SDS011;42331;53.578;9.760;2023-05-07T06:21:27;12.70;;;7.50;;
56427;SDS011;42331;53.578;9.760;2023-05-07T06:23:57;10.73;;;6.85;;
56427;SDS011;42331;53.578;9.760;2023-05-07T06:26:28;11.00;;;7.45;;
56427;SDS011;42331;53.578;9.760;2023-05-07T06:28:59;10.27;;;6.78;;
56427;SDS011;42331;53.578;9.760;2023-05-07T06:31:30;10.13;;;7.13;;
56427;SDS011;42331;53.578;9.760;2023-05-07T06:39:05;10.48;;;6.68;;
56427;SDS011;42331;53.578;9.760;2023-05-07T06:41:36;8.80;;;6.50;;
56427;SDS011;42331;53.578;9.760;2023-05-07T06:44:07;10.23;;;7.15;;
56427;SDS011;42331;53.578;9.760;2023-05-07T06:46:37;10.38;;;6.88;;
56427;SDS011;42331;53.578;9.760;2023-05-07T06:49:08;8.70;;;6.07;;
56427;SDS011;42331;53.578;9.760;2023-05-07T06:51:39;7.78;;;5.25;;
56427;SDS011;42331;53.578;9.760;2023-05-07T06:54:09;9.82;;;6.95;;
56427;SDS011;42331;53.578;9.760;2023-05-07T06:56:40;8.18;;;5.65;;
56427;SDS011;42331;53.578;9.760;2023-05-07T06:59:11;10.73;;;6.88;;
56427;SDS011;42331;53.578;9.760;2023-05-07T07:01:42;10.98;;;7.18;;
56427;SDS011;42331;53.578;9.760;2023-05-07T07:04:13;9.52;;;6.35;;
56427;SDS011;42331;53.578;9.760;2023-05-07T07:06:43;8.63;;;6.65;;
56427;SDS011;42331;53.578;9.760;2023-05-07T07:09:15;12.50;;;6.57;;
56427;SDS011;42331;53.578;9.760;2023-05-07T07:11:46;10.52;;;6.00;;
56427;SDS011;42331;53.578;9.760;2023-05-07T07:14:17;12.38;;;7.03;;
56427;SDS011;42331;53.578;9.760;2023-05-07T07:16:48;9.75;;;6.55;;
56427;SDS011;42331;53.578;9.760;2023-05-07T07:19:18;9.63;;;5.97;;
56427;SDS011;42331;53.578;9.760;2023-05-07T07:21:50;8.38;;;6.03;;
56427;SDS011;42331;53.578;9.760;2023-05-07T07:24:21;8.77;;;6.30;;
56427;SDS011;42331;53.578;9.760;2023-05-07T07:26:51;10.63;;;6.10;;
56427;SDS011;42331;53.578;9.760;2023-05-07T07:29:22;8.63;;;5.93;;
56427;SDS011;42331;53.578;9.760;2023-05-07T07:31:53;11.65;;;7.22;;
56427;SDS011;42331;53.578;9.760;2023-05-07T07:34:23;8.50;;;5.97;;
56427;SDS011;42331;53.578;9.760;2023-05-07T07:36:54;9.25;;;6.22;;
56427;SDS011;42331;53.578;9.760;2023-05-07T07:39:25;7.97;;;5.07;;
56427;SDS011;42331;53.578;9.760;2023-05-07T07:41:55;12.40;;;6.00;;
56427;SDS011;42331;53.578;9.760;2023-05-07T07:44:27;9.70;;;5.68;;
56427;SDS011;42331;53.578;9.760;2023-05-07T07:46:58;7.93;;;5.47;;
56427;SDS011;42331;53.578;9.760;2023-05-07T07:49:29;8.48;;;5.20;;
56427;SDS011;42331;53.578;9.760;2023-05-07T07:51:59;9.00;;;5.97;;
56427;SDS011;42331;53.578;9.760;2023-05-07T07:54:30;7.90;;;5.30;;
56427;SDS011;42331;53.578;9.760;2023-05-07T07:57:01;8.63;;;5.60;;
56427;SDS011;42331;53.578;9.760;2023-05-07T07:59:32;9.35;;;4.90;;
56427;SDS011;42331;53.578;9.760;2023-05-07T08:02:02;7.70;;;5.30;;
56427;SDS011;42331;53.578;9.760;2023-05-07T08:04:33;7.15;;;4.60;;
56427;SDS011;42331;53.578;9.760;2023-05-07T08:07:04;5.93;;;4.45;;
56427;SDS011;42331;53.578;9.760;2023-05-07T08:09:36;7.82;;;4.30;;
56427;SDS011;42331;53.578;9.760;2023-05-07T08:14:38;7.60;;;4.85;;
56427;SDS011;42331;53.578;9.760;2023-05-07T08:17:09;5.47;;;3.85;;
56427;SDS011;42331;53.578;9.760;2023-05-07T08:19:40;12.30;;;5.85;;
56427;SDS011;42331;53.578;9.760;2023-05-07T08:22:11;9.32;;;5.75;;
56427;SDS011;42331;53.578;9.760;2023-05-07T08:24:41;6.90;;;4.63;;
56427;SDS011;42331;53.578;9.760;2023-05-07T08:27:12;10.38;;;5.45;;
56427;SDS011;42331;53.578;9.760;2023-05-07T08:29:43;8.20;;;4.70;;
56427;SDS011;42331;53.578;9.760;2023-05-07T08:32:17;9.48;;;5.28;;
56427;SDS011;42331;53.578;9.760;2023-05-07T08:34:48;6.65;;;4.80;;
56427;SDS011;42331;53.578;9.760;2023-05-07T08:37:18;7.72;;;5.07;;
56427;SDS011;42331;53.578;9.760;2023-05-07T08:39:49;7.45;;;4.93;;
56427;SDS011;42331;53.578;9.760;2023-05-07T08:42:20;7.60;;;4.85;;
56427;SDS011;42331;53.578;9.760;2023-05-07T08:44:53;8.77;;;4.63;;
56427;SDS011;42331;53.578;9.760;2023-05-07T08:47:29;6.45;;;4.88;;
56427;SDS011;42331;53.578;9.760;2023-05-07T08:50:09;6.35;;;4.28;;
56427;SDS011;42331;53.578;9.760;2023-05-07T08:52:40;6.43;;;4.80;;
56427;SDS011;42331;53.578;9.760;2023-05-07T08:55:11;8.38;;;5.03;;
56427;SDS011;42331;53.578;9.760;2023-05-07T08:57:43;6.95;;;4.60;;
56427;SDS011;42331;53.578;9.760;2023-05-07T09:00:14;7.30;;;4.75;;
56427;SDS011;42331;53.578;9.760;2023-05-07T09:02:45;6.10;;;4.17;;
56427;SDS011;42331;53.578;9.760;2023-05-07T09:05:16;6.85;;;4.28;;
56427;SDS011;42331;53.578;9.760;2023-05-07T09:07:47;7.45;;;4.50;;
56427;SDS011;42331;53.578;9.760;2023-05-07T09:10:19;5.70;;;4.30;;
56427;SDS011;42331;53.578;9.760;2023-05-07T09:15:21;6.25;;;4.35;;
56427;SDS011;42331;53.578;9.760;2023-05-07T09:17:52;8.32;;;5.10;;
56427;SDS011;42331;53.578;9.760;2023-05-07T09:20:22;6.15;;;4.60;;
56427;SDS011;42331;53.578;9.760;2023-05-07T09:22:55;7.53;;;4.40;;
56427;SDS011;42331;53.578;9.760;2023-05-07T09:25:32;6.55;;;4.18;;
56427;SDS011;42331;53.578;9.760;2023-05-07T09:28:04;7.28;;;4.70;;
56427;SDS011;42331;53.578;9.760;2023-05-07T09:30:40;6.72;;;4.55;;
56427;SDS011;42331;53.578;9.760;2023-05-07T09:33:10;6.43;;;4.57;;
56427;SDS011;42331;53.578;9.760;2023-05-07T09:35:41;7.75;;;4.20;;
56427;SDS011;42331;53.578;9.760;2023-05-07T09:38:12;8.90;;;4.55;;
56427;SDS011;42331;53.578;9.760;2023-05-07T09:40:43;6.30;;;4.32;;
56427;SDS011;42331;53.578;9.760;2023-05-07T09:43:14;6.88;;;4.57;;
56427;SDS011;42331;53.578;9.760;2023-05-07T09:45:44;6.60;;;4.70;;
56427;SDS011;42331;53.578;9.760;2023-05-07T09:48:21;6.85;;;4.35;;
56427;SDS011;42331;53.578;9.760;2023-05-07T09:50:52;7.25;;;4.57;;
56427;SDS011;42331;53.578;9.760;2023-05-07T09:53:29;7.30;;;4.53;;
56427;SDS011;42331;53.578;9.760;2023-05-07T09:56:01;8.15;;;4.82;;
56427;SDS011;42331;53.578;9.760;2023-05-07T10:01:04;8.57;;;5.05;;
56427;SDS011;42331;53.578;9.760;2023-05-07T10:03:36;6.65;;;4.70;;
56427;SDS011;42331;53.578;9.760;2023-05-07T10:06:10;8.45;;;4.82;;
56427;SDS011;42331;53.578;9.760;2023-05-07T10:08:42;7.10;;;4.78;;
56427;SDS011;42331;53.578;9.760;2023-05-07T10:11:14;8.38;;;5.20;;
56427;SDS011;42331;53.578;9.760;2023-05-07T10:13:46;10.00;;;5.72;;
56427;SDS011;42331;53.578;9.760;2023-05-07T10:16:18;6.18;;;4.40;;
56427;SDS011;42331;53.578;9.760;2023-05-07T10:18:49;6.17;;;4.53;;
56427;SDS011;42331;53.578;9.760;2023-05-07T10:21:21;8.10;;;4.50;;
56427;SDS011;42331;53.578;9.760;2023-05-07T10:23:57;7.40;;;4.30;;
56427;SDS011;42331;53.578;9.760;2023-05-07T10:26:30;8.48;;;4.63;;
56427;SDS011;42331;53.578;9.760;2023-05-07T10:29:07;5.95;;;3.80;;
56427;SDS011;42331;53.578;9.760;2023-05-07T10:34:23;5.75;;;4.30;;
56427;SDS011;42331;53.578;9.760;2023-05-07T10:36:58;6.05;;;3.65;;
56427;SDS011;42331;53.578;9.760;2023-05-07T10:39:29;7.90;;;4.20;;
56427;SDS011;42331;53.578;9.760;2023-05-07T10:42:10;5.38;;;4.25;;
56427;SDS011;42331;53.578;9.760;2023-05-07T10:47:14;6.47;;;4.32;;
56427;SDS011;42331;53.578;9.760;2023-05-07T10:52:20;7.40;;;4.60;;
56427;SDS011;42331;53.578;9.760;2023-05-07T10:57:51;6.30;;;4.55;;
56427;SDS011;42331;53.578;9.760;2023-05-07T11:05:32;6.65;;;4.35;;
56427;SDS011;42331;53.578;9.760;2023-05-07T11:08:03;5.90;;;3.60;;
56427;SDS011;42331;53.578;9.760;2023-05-07T11:10:55;6.47;;;4.65;;
56427;SDS011;42331;53.578;9.760;2023-05-07T11:13:43;5.82;;;4.13;;
56427;SDS011;42331;53.578;9.760;2023-05-07T11:18:53;6.30;;;3.72;;
56427;SDS011;42331;53.578;9.760;2023-05-07T11:21:35;5.70;;;3.80;;
56427;SDS011;42331;53.578;9.760;2023-05-07T11:24:07;7.40;;;4.13;;
56427;SDS011;42331;53.578;9.760;2023-05-07T11:26:44;7.22;;;4.15;;
56427;SDS011;42331;53.578;9.760;2023-05-07T11:29:19;5.05;;;3.72;;
56427;SDS011;42331;53.578;9.760;2023-05-07T11:31:53;6.13;;;3.67;;
56427;SDS011;42331;53.578;9.760;2023-05-07T11:34:26;6.78;;;4.10;;
56427;SDS011;42331;53.578;9.760;2023-05-07T11:36:57;6.65;;;3.88;;
56427;SDS011;42331;53.578;9.760;2023-05-07T11:39:30;5.78;;;3.90;;
56427;SDS011;42331;53.578;9.760;2023-05-07T11:42:02;6.97;;;3.70;;
56427;SDS011;42331;53.578;9.760;2023-05-07T11:44:43;5.57;;;3.88;;
56427;SDS011;42331;53.578;9.760;2023-05-07T11:47:18;8.23;;;3.50;;
56427;SDS011;42331;53.578;9.760;2023-05-07T11:52:22;6.65;;;3.85;;
56427;SDS011;42331;53.578;9.760;2023-05-07T11:54:57;8.13;;;3.67;;
56427;SDS011;42331;53.578;9.760;2023-05-07T11:57:39;7.13;;;4.10;;
56427;SDS011;42331;53.578;9.760;2023-05-07T12:00:10;5.05;;;4.10;;
56427;SDS011;42331;53.578;9.760;2023-05-07T12:02:41;6.68;;;4.07;;
56427;SDS011;42331;53.578;9.760;2023-05-07T12:05:12;6.18;;;3.70;;
56427;SDS011;42331;53.578;9.760;2023-05-07T12:07:43;5.80;;;3.70;;
56427;SDS011;42331;53.578;9.760;2023-05-07T12:10:14;6.13;;;3.63;;
56427;SDS011;42331;53.578;9.760;2023-05-07T12:12:45;5.22;;;3.70;;
56427;SDS011;42331;53.578;9.760;2023-05-07T12:15:17;4.50;;;3.33;;
56427;SDS011;42331;53.578;9.760;2023-05-07T12:17:47;5.47;;;2.97;;
56427;SDS011;42331;53.578;9.760;2023-05-07T12:20:19;5.05;;;3.50;;
56427;SDS011;42331;53.578;9.760;2023-05-07T12:22:50;6.43;;;3.03;;
56427;SDS011;42331;53.578;9.760;2023-05-07T12:25:22;5.60;;;3.38;;
56427;SDS011;42331;53.578;9.760;2023-05-07T12:27:53;5.38;;;3.40;;
56427;SDS011;42331;53.578;9.760;2023-05-07T12:30:24;4.82;;;3.03;;
56427;SDS011;42331;53.578;9.760;2023-05-07T12:32:57;6.28;;;3.47;;
56427;SDS011;42331;53.578;9.760;2023-05-07T12:35:28;4.68;;;3.30;;
56427;SDS011;42331;53.578;9.760;2023-05-07T12:38:13;4.45;;;3.03;;
56427;SDS011;42331;53.578;9.760;2023-05-07T12:40:46;3.95;;;2.92;;
56427;SDS011;42331;53.578;9.760;2023-05-07T12:43:23;4.75;;;3.45;;
56427;SDS011;42331;53.578;9.760;2023-05-07T12:46:03;3.90;;;2.90;;
56427;SDS011;42331;53.578;9.760;2023-05-07T12:48:37;4.35;;;2.97;;
56427;SDS011;42331;53.578;9.760;2023-05-07T12:51:13;4.53;;;2.78;;
56427;SDS011;42331;53.578;9.760;2023-05-07T12:53:45;4.53;;;2.95;;
56427;SDS011;42331;53.578;9.760;2023-05-07T12:56:15;4.72;;;2.60;;
56427;SDS011;42331;53.578;9.760;2023-05-07T12:58:48;4.15;;;2.65;;
56427;SDS011;42331;53.578;9.760;2023-05-07T13:01:19;6.00;;;2.95;;
56427;SDS011;42331;53.578;9.760;2023-05-07T13:03:49;4.38;;;3.05;;
56427;SDS011;42331;53.578;9.760;2023-05-07T13:06:20;4.75;;;2.65;;
56427;SDS011;42331;53.578;9.760;2023-05-07T13:08:51;3.35;;;2.28;;
56427;SDS011;42331;53.578;9.760;2023-05-07T13:11:22;4.10;;;2.53;;
56427;SDS011;42331;53.578;9.760;2023-05-07T13:13:53;3.75;;;2.28;;
56427;SDS011;42331;53.578;9.760;2023-05-07T13:16:23;5.20;;;2.70;;
56427;SDS011;42331;53.578;9.760;2023-05-07T13:18:54;4.80;;;2.00;;
56427;SDS011;42331;53.578;9.760;2023-05-07T13:21:25;5.97;;;2.53;;
56427;SDS011;42331;53.578;9.760;2023-05-07T13:23:56;4.32;;;2.45;;
56427;SDS011;42331;53.578;9.760;2023-05-07T13:26:29;4.90;;;2.40;;
56427;SDS011;42331;53.578;9.760;2023-05-07T13:29:01;4.90;;;2.10;;
56427;SDS011;42331;53.578;9.760;2023-05-07T13:31:32;5.82;;;2.00;;
56427;SDS011;42331;53.578;9.760;2023-05-07T13:34:03;4.30;;;1.90;;
56427;SDS011;42331;53.578;9.760;2023-05-07T13:36:34;6.10;;;2.30;;
56427;SDS011;42331;53.578;9.760;2023-05-07T13:39:07;3.38;;;1.90;;
56427;SDS011;42331;53.578;9.760;2023-05-07T13:41:39;5.13;;;2.10;;
56427;SDS011;42331;53.578;9.760;2023-05-07T13:44:10;3.08;;;2.20;;
56427;SDS011;42331;53.578;9.760;2023-05-07T13:46:43;5.03;;;2.20;;
56427;SDS011;42331;53.578;9.760;2023-05-07T13:49:15;4.07;;;2.13;;
56427;SDS011;42331;53.578;9.760;2023-05-07T13:51:46;4.15;;;1.88;;
56427;SDS011;42331;53.578;9.760;2023-05-07T13:54:16;3.70;;;2.10;;
56427;SDS011;42331;53.578;9.760;2023-05-07T13:56:47;6.45;;;2.03;;
56427;SDS011;42331;53.578;9.760;2023-05-07T13:59:18;7.47;;;2.03;;
56427;SDS011;42331;53.578;9.760;2023-05-07T14:01:49;3.28;;;1.90;;
56427;SDS011;42331;53.578;9.760;2023-05-07T14:04:20;3.38;;;1.80;;
56427;SDS011;42331;53.578;9.760;2023-05-07T14:06:50;4.63;;;2.08;;
56427;SDS011;42331;53.578;9.760;2023-05-07T14:09:21;4.32;;;1.95;;
56427;SDS011;42331;53.578;9.760;2023-05-07T14:11:52;3.05;;;1.63;;
56427;SDS011;42331;53.578;9.760;2023-05-07T14:14:23;3.45;;;1.70;;
56427;SDS011;42331;53.578;9.760;2023-05-07T14:16:53;2.70;;;1.65;;
56427;SDS011;42331;53.578;9.760;2023-05-07T14:19:24;3.60;;;1.80;;
56427;SDS011;42331;53.578;9.760;2023-05-07T14:22:19;4.93;;;2.10;;
56427;SDS011;42331;53.578;9.760;2023-05-07T14:27:21;3.17;;;2.00;;
56427;SDS011;42331;53.578;9.760;2023-05-07T14:29:52;5.13;;;1.80;;
56427;SDS011;42331;53.578;9.760;2023-05-07T14:32:22;6.65;;;1.95;;
56427;SDS011;42331;53.578;9.760;2023-05-07T14:34:53;3.92;;;1.80;;
56427;SDS011;42331;53.578;9.760;2023-05-07T14:37:24;3.25;;;1.60;;
56427;SDS011;42331;53.578;9.760;2023-05-07T14:39:55;3.55;;;1.95;;
56427;SDS011;42331;53.578;9.760;2023-05-07T14:42:25;3.58;;;1.90;;
56427;SDS011;42331;53.578;9.760;2023-05-07T14:44:56;5.05;;;2.33;;
56427;SDS011;42331;53.578;9.760;2023-05-07T14:47:27;4.47;;;1.67;;
56427;SDS011;42331;53.578;9.760;2023-05-07T14:49:57;2.83;;;1.40;;
56427;SDS011;42331;53.578;9.760;2023-05-07T14:52:29;2.00;;;1.23;;
56427;SDS011;42331;53.578;9.760;2023-05-07T14:55:00;3.97;;;1.77;;
56427;SDS011;42331;53.578;9.760;2023-05-07T14:57:30;1.85;;;1.13;;
56427;SDS011;42331;53.578;9.760;2023-05-07T15:00:05;3.25;;;1.40;;
56427;SDS011;42331;53.578;9.760;2023-05-07T15:02:37;4.53;;;1.60;;
56427;SDS011;42331;53.578;9.760;2023-05-07T15:05:07;3.58;;;1.40;;
56427;SDS011;42331;53.578;9.760;2023-05-07T15:07:38;2.92;;;1.70;;
56427;SDS011;42331;53.578;9.760;2023-05-07T15:10:09;3.60;;;1.60;;
56427;SDS011;42331;53.578;9.760;2023-05-07T15:12:40;3.70;;;1.40;;
56427;SDS011;42331;53.578;9.760;2023-05-07T15:15:10;2.83;;;1.55;;
56427;SDS011;42331;53.578;9.760;2023-05-07T15:17:41;4.70;;;1.50;;
56427;SDS011;42331;53.578;9.760;2023-05-07T15:20:12;2.90;;;1.45;;
56427;SDS011;42331;53.578;9.760;2023-05-07T15:22:42;3.10;;;1.40;;
56427;SDS011;42331;53.578;9.760;2023-05-07T15:25:13;2.65;;;1.30;;
56427;SDS011;42331;53.578;9.760;2023-05-07T15:27:44;2.42;;;1.20;;
56427;SDS011;42331;53.578;9.760;2023-05-07T15:30:15;4.53;;;1.60;;
56427;SDS011;42331;53.578;9.760;2023-05-07T15:32:45;2.03;;;1.25;;
56427;SDS011;42331;53.578;9.760;2023-05-07T15:35:17;3.20;;;1.45;;
56427;SDS011;42331;53.578;9.760;2023-05-07T15:37:51;3.80;;;1.50;;
56427;SDS011;42331;53.578;9.760;2023-05-07T15:40:25;3.80;;;1.60;;
56427;SDS011;42331;53.578;9.760;2023-05-07T15:42:56;2.50;;;1.25;;
56427;SDS011;42331;53.578;9.760;2023-05-07T15:45:27;2.20;;;1.33;;